createdAt,value
2019-05-29T00:01:20.373Z,20.72
2019-05-29T00:03:50.703Z,25.43
2019-05-29T00:06:22.482Z,26.48
2019-05-29T00:08:54.154Z,20.12
2019-05-29T00:11:25.752Z,16.40
2019-05-29T00:13:57.594Z,16.07
2019-05-29T00:16:29.254Z,23.07
2019-05-29T00:19:00.994Z,18.50
2019-05-29T00:21:32.598Z,22.52
2019-05-29T00:24:04.157Z,19.35
2019-05-29T00:26:35.990Z,23.52
2019-05-29T00:29:07.650Z,26.00
2019-05-29T00:31:39.257Z,18.20
2019-05-29T00:34:11.131Z,25.12
2019-05-29T00:36:42.727Z,22.25
2019-05-29T00:39:14.816Z,32.67
2019-05-29T00:41:46.378Z,24.10
2019-05-29T00:44:31.568Z,21.05
2019-05-29T00:46:51.304Z,23.73
2019-05-29T00:49:23.537Z,22.73
2019-05-29T00:51:55.343Z,22.70
2019-05-29T00:54:27.234Z,20.70
2019-05-29T00:56:58.694Z,26.68
2019-05-29T00:59:30.065Z,21.00
2019-05-29T01:02:01.646Z,18.95
2019-05-29T01:04:33.334Z,24.32
2019-05-29T01:07:05.025Z,12.40
2019-05-29T01:09:36.700Z,14.45
2019-05-29T01:12:08.126Z,25.35
2019-05-29T01:14:49.730Z,21.73
2019-05-29T01:17:13.667Z,16.37
2019-05-29T01:19:45.577Z,14.78
2019-05-29T01:22:18.683Z,15.58
2019-05-29T01:24:50.415Z,14.33
2019-05-29T01:27:23.016Z,13.98
2019-05-29T01:29:54.878Z,17.05
2019-05-29T01:32:26.602Z,16.30
2019-05-29T01:34:58.249Z,15.72
2019-05-29T01:37:30.355Z,15.88
2019-05-29T01:40:16.637Z,19.87
2019-05-29T01:42:35.018Z,18.92
2019-05-29T01:45:08.691Z,13.40
2019-05-29T01:47:40.781Z,24.30
2019-05-29T01:50:12.787Z,13.98
2019-05-29T01:52:44.328Z,16.70
2019-05-29T01:55:16.166Z,11.75
2019-05-29T01:57:47.827Z,19.55
2019-05-29T02:00:20.089Z,15.53
2019-05-29T02:02:51.865Z,12.03
2019-05-29T02:05:24.130Z,12.58
2019-05-29T02:07:56.318Z,13.45
2019-05-29T02:10:27.992Z,11.70
2019-05-29T02:12:59.810Z,9.13
2019-05-29T02:15:33.891Z,10.55
2019-05-29T02:18:04.383Z,14.03
2019-05-29T02:20:36.243Z,12.33
2019-05-29T02:23:08.227Z,32.05
2019-05-29T02:25:39.766Z,19.48
2019-05-29T02:28:11.126Z,15.10
2019-05-29T02:30:42.871Z,11.63
2019-05-29T02:33:14.397Z,14.87
2019-05-29T02:35:45.974Z,14.50
2019-05-29T02:38:18.444Z,7.50
2019-05-29T02:40:50.489Z,9.80
2019-05-29T02:43:23.599Z,13.70
2019-05-29T02:45:55.350Z,12.88
2019-05-29T02:48:28.067Z,14.80
2019-05-29T02:51:00.972Z,14.10
2019-05-29T02:53:32.612Z,13.48
2019-05-29T02:56:04.142Z,11.12
2019-05-29T02:58:35.707Z,10.65
2019-05-29T03:01:07.523Z,10.72
2019-05-29T03:03:40.027Z,13.15
2019-05-29T03:06:12.251Z,14.10
2019-05-29T03:08:43.990Z,10.23
2019-05-29T03:11:16.064Z,14.43
2019-05-29T03:13:47.637Z,11.57
2019-05-29T03:16:19.823Z,17.32
2019-05-29T03:18:51.326Z,12.53
2019-05-29T03:21:24.101Z,9.93
2019-05-29T03:23:55.767Z,11.40
2019-05-29T03:26:30.331Z,16.27
2019-05-29T03:29:00.467Z,12.35
2019-05-29T03:31:39.573Z,17.73
2019-05-29T03:34:05.508Z,13.55
2019-05-29T03:36:43.526Z,10.63
2019-05-29T03:39:10.335Z,17.00
2019-05-29T03:41:42.219Z,16.10
2019-05-29T03:44:13.905Z,15.25
2019-05-29T03:46:46.175Z,11.60
2019-05-29T03:49:18.089Z,14.70
2019-05-29T03:51:49.851Z,12.20
2019-05-29T03:54:21.233Z,12.07
2019-05-29T03:56:53.070Z,15.60
2019-05-29T03:59:26.588Z,10.98
2019-05-29T04:01:57.892Z,14.60
2019-05-29T04:04:31.151Z,15.65
2019-05-29T04:07:02.781Z,9.03
2019-05-29T04:09:35.409Z,9.35
2019-05-29T04:12:07.259Z,13.48
2019-05-29T04:14:38.796Z,10.25
2019-05-29T04:17:10.151Z,15.03
2019-05-29T04:19:41.856Z,9.33
2019-05-29T04:22:13.361Z,8.53
2019-05-29T04:24:45.213Z,22.87
2019-05-29T04:27:16.878Z,29.60
2019-05-29T04:29:48.279Z,13.88
2019-05-29T04:32:20.001Z,8.83
2019-05-29T04:34:51.651Z,6.90
2019-05-29T04:37:23.542Z,9.35
2019-05-29T04:39:55.259Z,10.32
2019-05-29T04:42:28.884Z,14.25
2019-05-29T04:44:59.836Z,12.23
2019-05-29T04:47:33.119Z,6.47
2019-05-29T04:50:04.046Z,8.90
2019-05-29T04:52:37.677Z,10.35
2019-05-29T04:55:08.821Z,10.25
2019-05-29T04:57:40.707Z,6.60
2019-05-29T05:00:12.253Z,9.30
2019-05-29T05:02:44.106Z,6.72
2019-05-29T05:05:18.842Z,7.12
2019-05-29T05:07:48.722Z,6.70
2019-05-29T05:10:38.116Z,7.12
2019-05-29T05:13:09.892Z,9.68
2019-05-29T05:15:41.230Z,5.78
2019-05-29T05:18:13.397Z,8.53
2019-05-29T05:20:44.706Z,7.05
2019-05-29T05:23:16.453Z,4.90
2019-05-29T05:25:48.133Z,9.48
2019-05-29T05:28:20.020Z,6.08
2019-05-29T05:30:51.686Z,5.95
2019-05-29T05:33:23.435Z,7.25
2019-05-29T05:35:55.176Z,6.55
2019-05-29T05:38:27.103Z,5.03
2019-05-29T05:40:58.447Z,6.60
2019-05-29T05:43:30.680Z,5.03
2019-05-29T05:46:02.167Z,4.87
2019-05-29T05:48:33.686Z,5.47
2019-05-29T05:51:05.205Z,5.47
2019-05-29T05:53:37.572Z,11.68
2019-05-29T05:56:09.390Z,5.30
2019-05-29T05:58:42.287Z,7.37
2019-05-29T06:01:14.344Z,5.20
2019-05-29T06:03:45.913Z,4.42
2019-05-29T06:06:17.785Z,8.40
2019-05-29T06:08:49.170Z,10.72
2019-05-29T06:11:21.131Z,4.53
2019-05-29T06:13:52.583Z,10.05
2019-05-29T06:16:24.491Z,10.75
2019-05-29T06:18:56.194Z,6.70
2019-05-29T06:21:27.974Z,4.90
2019-05-29T06:23:59.498Z,7.70
2019-05-29T06:26:30.783Z,10.10
2019-05-29T06:29:02.520Z,8.10
2019-05-29T06:31:35.155Z,5.90
2019-05-29T06:34:07.280Z,8.03
2019-05-29T06:36:39.631Z,10.03
2019-05-29T06:39:11.450Z,28.02
2019-05-29T06:41:44.231Z,14.25
2019-05-29T06:44:16.265Z,9.60
2019-05-29T06:46:47.654Z,6.37
2019-05-29T06:49:19.226Z,6.55
2019-05-29T06:51:50.942Z,11.83
2019-05-29T06:54:22.790Z,6.95
2019-05-29T06:56:54.526Z,9.00
2019-05-29T06:59:26.178Z,14.00
2019-05-29T07:01:57.692Z,18.00
2019-05-29T07:04:29.402Z,6.50
2019-05-29T07:07:01.398Z,8.45
2019-05-29T07:09:33.531Z,20.37
2019-05-29T07:12:05.070Z,11.28
2019-05-29T07:14:36.660Z,11.60
2019-05-29T07:17:08.622Z,7.80
2019-05-29T07:19:53.908Z,9.83
2019-05-29T07:22:13.522Z,7.90
2019-05-29T07:24:46.942Z,7.15
2019-05-29T07:27:18.862Z,7.83
2019-05-29T07:29:51.379Z,7.00
2019-05-29T07:32:23.474Z,8.73
2019-05-29T07:35:03.371Z,6.58
2019-05-29T07:37:27.844Z,12.70
2019-05-29T07:39:59.296Z,10.70
2019-05-29T07:42:30.944Z,8.45
2019-05-29T07:45:02.729Z,6.92
2019-05-29T07:47:34.397Z,12.50
2019-05-29T07:50:06.682Z,9.50
2019-05-29T07:52:38.652Z,7.12
2019-05-29T07:55:11.304Z,10.20
2019-05-29T07:57:42.767Z,8.60
2019-05-29T08:00:14.693Z,8.03
2019-05-29T08:02:47.531Z,10.50
2019-05-29T08:05:19.188Z,10.35
2019-05-29T08:07:50.930Z,9.65
2019-05-29T08:10:22.491Z,8.15
2019-05-29T08:12:55.915Z,11.15
2019-05-29T08:15:27.366Z,7.67
2019-05-29T08:17:59.347Z,7.03
2019-05-29T08:20:30.846Z,7.12
2019-05-29T08:23:02.283Z,8.53
2019-05-29T08:25:34.117Z,5.92
2019-05-29T08:28:05.347Z,5.55
2019-05-29T08:30:38.403Z,6.55
2019-05-29T08:33:10.253Z,5.67
2019-05-29T08:35:42.967Z,11.55
2019-05-29T08:38:14.858Z,28.65
2019-05-29T08:40:47.320Z,15.53
2019-05-29T08:43:19.231Z,15.05
2019-05-29T08:45:52.526Z,9.78
2019-05-29T08:48:23.915Z,10.20
2019-05-29T08:50:55.439Z,9.93
2019-05-29T08:53:27.011Z,12.70
2019-05-29T08:55:59.560Z,5.67
2019-05-29T08:58:31.324Z,9.43
2019-05-29T09:01:03.220Z,4.40
2019-05-29T09:03:34.886Z,7.10
2019-05-29T09:06:09.068Z,5.72
2019-05-29T09:08:39.722Z,6.90
2019-05-29T09:11:11.490Z,7.47
2019-05-29T09:13:42.942Z,6.92
2019-05-29T09:16:14.690Z,4.80
2019-05-29T09:18:47.195Z,6.42
2019-05-29T09:21:19.183Z,13.20
2019-05-29T09:23:52.461Z,9.23
2019-05-29T09:26:25.819Z,16.27
2019-05-29T09:28:56.711Z,7.15
2019-05-29T09:31:28.543Z,8.10
2019-05-29T09:34:00.634Z,6.53
2019-05-29T09:36:32.400Z,9.25
2019-05-29T09:39:04.438Z,14.03
2019-05-29T09:41:36.097Z,8.00
2019-05-29T09:44:07.598Z,7.60
2019-05-29T09:46:39.441Z,6.87
2019-05-29T09:49:11.931Z,12.40
2019-05-29T09:51:43.342Z,9.18
2019-05-29T09:54:15.121Z,6.03
2019-05-29T09:56:47.095Z,6.87
2019-05-29T09:59:19.055Z,6.65
2019-05-29T10:01:50.721Z,4.85
2019-05-29T10:04:22.802Z,9.73
2019-05-29T10:06:54.920Z,11.95
2019-05-29T10:09:29.275Z,6.22
2019-05-29T10:12:04.104Z,5.47
2019-05-29T10:14:34.037Z,7.53
2019-05-29T10:17:11.762Z,8.10
2019-05-29T10:19:38.814Z,6.35
2019-05-29T10:22:10.337Z,7.22
2019-05-29T10:24:42.022Z,9.53
2019-05-29T10:27:13.996Z,7.60
2019-05-29T10:29:49.634Z,3.72
2019-05-29T10:32:18.871Z,6.55
2019-05-29T10:34:50.655Z,16.48
2019-05-29T10:37:22.529Z,16.52
2019-05-29T10:39:53.985Z,8.40
2019-05-29T10:42:25.518Z,4.05
2019-05-29T10:44:57.305Z,9.20
2019-05-29T10:47:29.046Z,7.08
2019-05-29T10:50:00.858Z,7.78
2019-05-29T10:52:32.573Z,5.53
2019-05-29T10:55:04.410Z,7.35
2019-05-29T10:57:36.363Z,17.57
2019-05-29T11:00:10.691Z,11.40
2019-05-29T11:02:42.604Z,11.65
2019-05-29T11:05:14.435Z,7.95
2019-05-29T11:07:46.095Z,6.92
2019-05-29T11:10:18.247Z,13.03
2019-05-29T11:12:50.661Z,7.03
2019-05-29T11:15:22.981Z,7.62
2019-05-29T11:17:55.328Z,9.48
2019-05-29T11:20:27.438Z,9.83
2019-05-29T11:22:59.366Z,6.95
2019-05-29T11:25:31.202Z,12.18
2019-05-29T11:28:02.710Z,9.53
2019-05-29T11:30:51.943Z,11.40
2019-05-29T11:33:22.901Z,7.15
2019-05-29T11:36:06.007Z,9.43
2019-05-29T11:38:27.600Z,9.33
2019-05-29T11:41:24.712Z,6.45
2019-05-29T11:43:32.417Z,7.35
2019-05-29T11:46:04.484Z,12.23
2019-05-29T11:48:36.123Z,8.73
2019-05-29T11:51:08.073Z,10.00
2019-05-29T11:53:39.747Z,8.50
2019-05-29T11:56:11.645Z,6.78
2019-05-29T11:58:45.638Z,4.10
2019-05-29T12:01:17.510Z,6.12
2019-05-29T12:04:15.683Z,6.50
2019-05-29T12:06:22.370Z,8.88
2019-05-29T12:08:54.011Z,7.45
2019-05-29T12:11:25.968Z,6.60
2019-05-29T12:13:58.062Z,9.78
2019-05-29T12:16:30.041Z,7.65
2019-05-29T12:19:01.946Z,12.47
2019-05-29T12:21:33.820Z,8.25
2019-05-29T12:24:05.566Z,9.90
2019-05-29T12:26:37.706Z,10.35
2019-05-29T12:29:11.811Z,13.60
2019-05-29T12:31:42.554Z,7.15
2019-05-29T12:34:19.250Z,10.03
2019-05-29T12:36:47.202Z,6.08
2019-05-29T12:39:18.704Z,10.28
2019-05-29T12:41:50.615Z,12.10
2019-05-29T12:44:22.339Z,7.85
2019-05-29T12:46:55.478Z,8.35
2019-05-29T12:49:27.014Z,7.37
2019-05-29T12:51:59.581Z,13.10
2019-05-29T12:54:31.667Z,12.50
2019-05-29T12:57:04.126Z,10.18
2019-05-29T12:59:36.382Z,14.58
2019-05-29T13:02:08.052Z,11.08
2019-05-29T13:05:05.921Z,9.00
2019-05-29T13:07:12.722Z,9.45
2019-05-29T13:09:44.765Z,8.73
2019-05-29T13:12:16.606Z,6.97
2019-05-29T13:14:48.585Z,8.50
2019-05-29T13:17:20.146Z,11.30
2019-05-29T13:19:51.953Z,6.80
2019-05-29T13:22:23.860Z,11.30
2019-05-29T13:24:57.043Z,10.55
2019-05-29T13:27:28.842Z,6.40
2019-05-29T13:30:02.515Z,7.22
2019-05-29T13:32:33.568Z,9.25
2019-05-29T13:35:06.300Z,5.12
2019-05-29T13:37:37.886Z,9.80
2019-05-29T13:40:09.711Z,6.30
2019-05-29T13:42:41.246Z,9.98
2019-05-29T13:45:18.279Z,8.40
2019-05-29T13:47:46.075Z,7.37
2019-05-29T13:50:17.851Z,7.12
2019-05-29T13:52:49.540Z,10.38
2019-05-29T13:55:21.383Z,8.88
2019-05-29T13:57:52.938Z,4.83
2019-05-29T14:00:33.106Z,7.72
2019-05-29T14:02:58.576Z,7.20
2019-05-29T14:05:30.534Z,7.03
2019-05-29T14:08:02.754Z,10.40
2019-05-29T14:10:34.719Z,9.85
2019-05-29T14:13:07.391Z,11.33
2019-05-29T14:15:39.429Z,12.93
2019-05-29T14:18:11.034Z,10.48
2019-05-29T14:20:42.868Z,8.05
2019-05-29T14:23:14.583Z,7.17
2019-05-29T14:25:46.210Z,9.58
2019-05-29T14:28:18.042Z,7.53
2019-05-29T14:30:50.122Z,13.62
2019-05-29T14:33:21.806Z,7.83
2019-05-29T14:35:53.846Z,8.23
2019-05-29T14:38:25.598Z,6.33
2019-05-29T14:40:57.291Z,7.50
2019-05-29T14:43:29.286Z,13.40
2019-05-29T14:46:01.817Z,7.53
2019-05-29T14:48:33.691Z,7.75
2019-05-29T14:51:06.448Z,12.45
2019-05-29T14:53:38.557Z,7.53
2019-05-29T14:56:10.633Z,8.13
2019-05-29T14:58:42.665Z,10.25
2019-05-29T15:01:16.571Z,7.87
2019-05-29T15:03:48.594Z,7.87
2019-05-29T15:06:20.507Z,8.28
2019-05-29T15:08:52.416Z,9.78
2019-05-29T15:11:24.074Z,8.40
2019-05-29T15:13:56.202Z,12.20
2019-05-29T15:16:27.967Z,16.90
2019-05-29T15:18:59.672Z,10.85
2019-05-29T15:21:31.402Z,8.28
2019-05-29T15:24:03.171Z,4.17
2019-05-29T15:26:34.897Z,9.53
2019-05-29T15:29:07.957Z,19.00
2019-05-29T15:31:39.803Z,11.65
2019-05-29T15:34:12.415Z,17.75
2019-05-29T15:36:44.071Z,11.28
2019-05-29T15:39:16.888Z,8.45
2019-05-29T15:41:48.545Z,15.75
2019-05-29T15:44:20.526Z,10.23
2019-05-29T15:46:52.146Z,10.93
2019-05-29T15:49:23.944Z,14.23
2019-05-29T15:51:55.362Z,8.53
2019-05-29T15:54:27.257Z,15.83
2019-05-29T15:56:58.935Z,5.92
2019-05-29T15:59:30.986Z,15.65
2019-05-29T16:02:03.134Z,7.05
2019-05-29T16:04:34.930Z,7.05
2019-05-29T16:07:07.779Z,7.90
2019-05-29T16:09:39.771Z,8.05
2019-05-29T16:12:12.642Z,10.70
2019-05-29T16:14:44.504Z,12.88
2019-05-29T16:17:17.265Z,10.70
2019-05-29T16:19:49.300Z,6.55
2019-05-29T16:22:20.830Z,10.10
2019-05-29T16:24:52.902Z,7.50
2019-05-29T16:27:30.044Z,8.10
2019-05-29T16:29:57.666Z,9.45
2019-05-29T16:32:29.078Z,9.80
2019-05-29T16:35:00.946Z,11.75
2019-05-29T16:37:32.965Z,11.28
2019-05-29T16:40:04.591Z,10.53
2019-05-29T16:42:36.445Z,7.50
2019-05-29T16:45:12.086Z,9.33
2019-05-29T16:47:44.239Z,11.15
2019-05-29T16:50:17.294Z,13.28
2019-05-29T16:52:48.953Z,8.30
2019-05-29T16:55:21.119Z,9.48
2019-05-29T16:57:53.154Z,10.43
2019-05-29T17:00:25.019Z,14.63
2019-05-29T17:02:57.405Z,15.13
2019-05-29T17:05:29.052Z,10.00
2019-05-29T17:08:00.615Z,7.65
2019-05-29T17:10:39.126Z,9.10
2019-05-29T17:13:10.926Z,5.33
2019-05-29T17:15:42.597Z,8.63
2019-05-29T17:18:14.729Z,8.65
2019-05-29T17:20:47.314Z,5.37
2019-05-29T17:23:18.970Z,6.70
2019-05-29T17:25:50.950Z,7.08
2019-05-29T17:28:25.100Z,7.33
2019-05-29T17:30:55.706Z,8.35
2019-05-29T17:33:27.250Z,7.47
2019-05-29T17:35:59.399Z,7.58
2019-05-29T17:38:31.055Z,5.30
2019-05-29T17:41:03.202Z,6.72
2019-05-29T17:43:34.902Z,7.62
2019-05-29T17:46:06.751Z,9.48
2019-05-29T17:48:38.452Z,6.50
2019-05-29T17:51:10.231Z,6.58
2019-05-29T17:53:41.828Z,7.97
2019-05-29T17:56:25.449Z,7.33
2019-05-29T17:58:46.275Z,5.20
2019-05-29T18:01:18.212Z,6.67
2019-05-29T18:03:50.725Z,8.10
2019-05-29T18:06:22.570Z,8.40
2019-05-29T18:08:54.610Z,6.03
2019-05-29T18:11:27.569Z,9.95
2019-05-29T18:14:03.073Z,7.70
2019-05-29T18:16:32.435Z,7.95
2019-05-29T18:19:04.528Z,6.95
2019-05-29T18:21:36.265Z,7.95
2019-05-29T18:24:08.194Z,11.48
2019-05-29T18:26:46.953Z,7.85
2019-05-29T18:29:12.931Z,8.95
2019-05-29T18:31:44.590Z,6.25
2019-05-29T18:34:16.362Z,7.87
2019-05-29T18:36:48.013Z,5.55
2019-05-29T18:39:20.245Z,6.92
2019-05-29T18:41:51.942Z,6.65
2019-05-29T18:44:24.739Z,8.83
2019-05-29T18:46:56.470Z,6.80
2019-05-29T18:49:28.643Z,6.10
2019-05-29T18:52:00.829Z,5.72
2019-05-29T18:54:33.132Z,5.28
2019-05-29T18:57:15.332Z,5.42
2019-05-29T18:59:38.230Z,3.87
2019-05-29T19:02:10.051Z,6.37
2019-05-29T19:04:42.218Z,6.12
2019-05-29T19:07:13.870Z,5.25
2019-05-29T19:09:45.761Z,7.12
2019-05-29T19:12:17.278Z,5.22
2019-05-29T19:14:49.035Z,10.93
2019-05-29T19:17:21.858Z,5.40
2019-05-29T19:19:53.918Z,10.38
2019-05-29T19:22:26.325Z,6.45
2019-05-29T19:24:58.274Z,7.28
2019-05-29T19:27:37.700Z,4.55
2019-05-29T19:30:03.398Z,11.10
2019-05-29T19:32:35.183Z,12.05
2019-05-29T19:35:08.024Z,15.65
2019-05-29T19:37:39.681Z,4.65
2019-05-29T19:40:11.347Z,6.92
2019-05-29T19:42:43.047Z,6.00
2019-05-29T19:45:14.576Z,9.68
2019-05-29T19:47:46.617Z,7.00
2019-05-29T19:50:18.957Z,9.88
2019-05-29T19:52:50.965Z,11.40
2019-05-29T19:55:22.850Z,14.23
2019-05-29T19:57:56.751Z,10.55
2019-05-29T20:00:28.059Z,6.65
2019-05-29T20:02:59.902Z,5.37
2019-05-29T20:05:32.746Z,9.50
2019-05-29T20:08:04.789Z,7.97
2019-05-29T20:10:37.581Z,12.18
2019-05-29T20:13:09.690Z,11.25
2019-05-29T20:15:41.446Z,9.15
2019-05-29T20:18:13.466Z,7.15
2019-05-29T20:20:45.370Z,7.75
2019-05-29T20:23:17.260Z,5.20
2019-05-29T20:25:48.943Z,17.98
2019-05-29T20:28:21.003Z,12.18
2019-05-29T20:30:52.946Z,8.90
2019-05-29T20:33:24.741Z,13.65
2019-05-29T20:35:56.380Z,12.33
2019-05-29T20:38:28.317Z,12.00
2019-05-29T20:40:59.953Z,14.20
2019-05-29T20:43:31.609Z,7.35
2019-05-29T20:46:03.511Z,13.35
2019-05-29T20:48:35.146Z,11.33
2019-05-29T20:51:07.337Z,10.90
2019-05-29T20:53:40.307Z,9.95
2019-05-29T20:56:12.317Z,15.15
2019-05-29T20:58:44.147Z,12.58
2019-05-29T21:01:16.070Z,10.25
2019-05-29T21:03:47.782Z,7.40
2019-05-29T21:06:21.950Z,14.70
2019-05-29T21:08:53.426Z,13.38
2019-05-29T21:11:25.100Z,8.03
2019-05-29T21:13:57.188Z,10.88
2019-05-29T21:16:28.920Z,12.07
2019-05-29T21:19:00.726Z,11.70
2019-05-29T21:21:32.404Z,8.80
2019-05-29T21:24:04.001Z,5.95
2019-05-29T21:26:36.726Z,8.70
2019-05-29T21:29:08.669Z,10.28
2019-05-29T21:31:41.574Z,18.32
2019-05-29T21:34:13.409Z,9.45
2019-05-29T21:36:46.266Z,11.03
2019-05-29T21:39:18.161Z,7.33
2019-05-29T21:41:50.146Z,14.00
2019-05-29T21:44:21.699Z,9.48
2019-05-29T21:46:53.491Z,10.08
2019-05-29T21:49:25.368Z,15.80
2019-05-29T21:51:57.014Z,13.05
2019-05-29T21:54:28.958Z,8.73
2019-05-29T21:57:00.518Z,12.47
2019-05-29T21:59:32.363Z,14.13
2019-05-29T22:02:04.657Z,11.93
2019-05-29T22:04:36.155Z,11.20
2019-05-29T22:07:08.405Z,10.75
2019-05-29T22:09:40.254Z,13.75
2019-05-29T22:12:12.246Z,13.95
2019-05-29T22:14:43.866Z,13.13
2019-05-29T22:17:15.871Z,14.43
2019-05-29T22:19:47.598Z,17.65
2019-05-29T22:22:19.678Z,9.05
2019-05-29T22:24:51.315Z,13.78
2019-05-29T22:27:23.433Z,15.48
2019-05-29T22:29:55.302Z,19.00
2019-05-29T22:32:27.278Z,13.40
2019-05-29T22:34:59.595Z,17.62
2019-05-29T22:37:32.130Z,13.48
2019-05-29T22:40:03.940Z,18.98
2019-05-29T22:42:35.684Z,34.90
2019-05-29T22:45:07.796Z,18.52
2019-05-29T22:47:39.617Z,19.70
2019-05-29T22:50:11.606Z,18.07
2019-05-29T22:52:43.158Z,15.55
2019-05-29T22:55:15.118Z,16.27
2019-05-29T22:57:46.911Z,13.98
2019-05-29T23:00:19.758Z,23.07
2019-05-29T23:02:51.918Z,17.73
2019-05-29T23:05:23.885Z,24.72
2019-05-29T23:07:56.112Z,17.87
2019-05-29T23:10:28.026Z,16.60
2019-05-29T23:13:02.532Z,19.48
2019-05-29T23:15:33.372Z,10.38
2019-05-29T23:18:05.198Z,14.63
2019-05-29T23:20:37.209Z,20.17
2019-05-29T23:23:08.921Z,15.32
2019-05-29T23:25:41.025Z,13.98
2019-05-29T23:28:12.650Z,17.02
2019-05-29T23:30:50.546Z,17.98
2019-05-29T23:33:22.078Z,25.52
2019-05-29T23:35:54.798Z,12.98
2019-05-29T23:38:26.974Z,13.58
2019-05-29T23:40:59.491Z,14.33
2019-05-29T23:43:31.473Z,19.77
2019-05-29T23:46:04.008Z,15.00
2019-05-29T23:48:36.164Z,11.97
2019-05-29T23:51:07.883Z,13.72
2019-05-29T23:53:39.438Z,17.27
2019-05-29T23:56:11.322Z,17.07
2019-05-29T23:58:42.858Z,13.40
